Time;durP1;ratioP1;P1;durP2;ratioP2;P2;SDS_P1;SDS_P2;PMS_P1;PMS_P2;Temp;Humidity;BMP_temperature;BMP_pressure;BME280_temperature;BME280_humidity;BME280_pressure;Samples;Min_cycle;Max_cycle;Signal;HPM_P1;HPM_P2
2022/01/20 00:01:50;;;;;;;24.70;4.38;;;4.50;99.90;;;;;;4965629;28;20064;-59
2022/01/20 00:04:23;;;;;;;21.48;4.05;;;4.40;99.90;;;;;;4974117;28;20739;-59
2022/01/20 00:09:48;;;;;;;17.10;4.18;;;4.30;99.90;;;;;;4967188;28;20050;-59
2022/01/20 00:25:59;;;;;;;22.05;3.72;;;4.00;99.90;;;;;;4964438;28;20084;-59
2022/01/20 00:28:47;;;;;;;16.92;3.20;;;4.00;99.90;;;;;;4982716;28;20047;-59
2022/01/20 00:34:12;;;;;;;13.80;2.92;;;4.00;99.90;;;;;;4989668;28;20051;-59
2022/01/20 00:39:26;;;;;;;13.32;2.13;;;4.20;99.90;;;;;;4961364;28;20388;-59
2022/01/20 00:41:52;;;;;;;14.85;2.90;;;4.20;99.90;;;;;;4960410;28;20111;-59
2022/01/20 00:44:19;;;;;;;13.20;2.72;;;4.20;99.90;;;;;;4969075;28;20110;-59
2022/01/20 00:46:46;;;;;;;14.45;2.65;;;4.20;99.90;;;;;;4981636;28;20326;-58
2022/01/20 00:49:14;;;;;;;24.77;2.78;;;4.30;99.90;;;;;;4965309;28;20042;-59
2022/01/20 00:51:40;;;;;;;16.25;3.10;;;4.20;99.90;;;;;;4960345;28;20046;-59
2022/01/20 00:54:06;;;;;;;16.58;3.20;;;4.20;99.90;;;;;;4966020;28;20051;-59
2022/01/20 00:56:33;;;;;;;22.52;3.47;;;4.20;99.90;;;;;;4966455;28;20100;-59
2022/01/20 00:58:59;;;;;;;13.57;2.28;;;4.10;99.90;;;;;;4961923;28;20051;-59
2022/01/20 01:01:26;;;;;;;21.48;2.92;;;4.00;99.90;;;;;;4991565;28;20085;-59
2022/01/20 01:03:52;;;;;;;22.45;3.25;;;4.00;99.90;;;;;;4949608;28;20061;-59
2022/01/20 01:09:05;;;;;;;14.00;2.92;;;3.90;99.90;;;;;;4952687;28;20129;-59
2022/01/20 01:11:31;;;;;;;16.85;3.17;;;3.90;99.90;;;;;;4969400;28;20052;-59
2022/01/20 01:13:58;;;;;;;15.18;2.47;;;3.80;99.90;;;;;;4968941;28;20039;-59
2022/01/20 01:16:36;;;;;;;18.95;2.70;;;3.80;99.90;;;;;;4965055;28;20039;-59
2022/01/20 01:22:02;;;;;;;18.00;3.30;;;3.80;99.90;;;;;;4955923;28;20054;-59
2022/01/20 01:24:29;;;;;;;16.50;2.80;;;3.80;99.90;;;;;;4963910;28;20123;-59
2022/01/20 01:26:56;;;;;;;21.42;2.65;;;3.70;99.90;;;;;;4951991;28;20047;-59
2022/01/20 01:30:19;;;;;;;17.00;2.80;;;3.70;99.90;;;;;;4962429;28;20046;-59
2022/01/20 01:32:12;;;;;;;16.40;2.67;;;3.80;99.90;;;;;;4946570;28;20051;-64
2022/01/20 01:34:41;;;;;;;14.20;2.83;;;3.70;99.90;;;;;;5027197;28;20055;-59
2022/01/20 01:37:25;;;;;;;20.42;2.90;;;3.70;99.90;;;;;;4971587;28;20052;-64
2022/01/20 01:39:51;;;;;;;14.18;2.28;;;3.80;99.90;;;;;;4962982;28;20083;-64
2022/01/20 01:42:24;;;;;;;13.38;2.92;;;3.70;99.90;;;;;;4960198;28;20042;-64
2022/01/20 01:44:52;;;;;;;20.48;3.15;;;3.80;99.90;;;;;;4957061;28;20076;-64
2022/01/20 01:47:18;;;;;;;10.50;1.90;;;4.00;99.90;;;;;;4949652;28;20050;-64
2022/01/20 01:49:44;;;;;;;15.10;2.63;;;3.90;99.90;;;;;;4934587;28;20051;-64
2022/01/20 01:52:10;;;;;;;13.25;2.85;;;4.00;99.90;;;;;;4944587;28;20085;-64
2022/01/20 01:54:37;;;;;;;17.35;2.78;;;4.10;99.90;;;;;;4952754;28;20061;-64
2022/01/20 01:57:06;;;;;;;13.55;2.72;;;4.10;99.90;;;;;;4996154;28;20051;-64
2022/01/20 01:59:34;;;;;;;19.55;2.97;;;4.10;99.90;;;;;;4952758;28;20448;-64
2022/01/20 02:02:18;;;;;;;9.88;2.47;;;4.10;99.90;;;;;;4953508;28;20059;-65
2022/01/20 02:04:46;;;;;;;13.57;2.90;;;4.20;99.90;;;;;;4955285;28;20059;-65
2022/01/20 02:18:48;;;;;;;11.20;1.92;;;4.00;99.90;;;;;;4959767;28;20053;-64
2022/01/20 02:21:35;;;;;;;15.23;3.35;;;3.90;99.90;;;;;;4965697;28;20401;-65
2022/01/20 02:24:02;;;;;;;13.07;2.28;;;3.80;99.90;;;;;;4978960;28;20560;-64
2022/01/20 02:26:28;;;;;;;10.25;2.08;;;3.80;99.90;;;;;;4958844;28;20504;-64
2022/01/20 02:28:55;;;;;;;12.13;2.58;;;3.80;99.90;;;;;;4961470;28;20073;-64
2022/01/20 02:31:22;;;;;;;10.70;1.98;;;3.90;99.90;;;;;;4962073;28;20390;-64
2022/01/20 02:33:50;;;;;;;12.43;1.88;;;3.90;99.90;;;;;;4972881;28;20100;-64
2022/01/20 02:36:18;;;;;;;11.10;2.00;;;3.90;99.90;;;;;;4965360;28;20081;-59
2022/01/20 02:38:52;;;;;;;9.65;1.95;;;4.00;99.90;;;;;;4941353;28;20065;-59
2022/01/20 02:46:48;;;;;;;10.93;2.08;;;4.10;99.90;;;;;;4964349;28;20070;-59
2022/01/20 02:49:15;;;;;;;9.93;1.55;;;4.10;99.90;;;;;;4978959;28;20136;-59
2022/01/20 02:51:53;;;;;;;9.85;1.70;;;4.00;99.90;;;;;;4922836;28;20108;-59
2022/01/20 02:54:21;;;;;;;18.70;2.05;;;4.00;99.90;;;;;;4946225;28;20081;-59
2022/01/20 02:56:48;;;;;;;11.30;2.13;;;4.00;99.90;;;;;;4950938;28;20051;-59
2022/01/20 02:59:14;;;;;;;14.00;2.03;;;4.00;99.90;;;;;;4965886;28;20652;-59
2022/01/20 03:01:41;;;;;;;9.50;1.50;;;4.00;99.90;;;;;;4937178;28;20039;-59
2022/01/20 03:04:07;;;;;;;6.82;1.85;;;4.00;99.90;;;;;;4962446;28;20062;-59
2022/01/20 03:06:33;;;;;;;8.75;2.17;;;3.90;99.90;;;;;;4950383;28;20046;-58
2022/01/20 03:09:00;;;;;;;14.55;2.88;;;3.90;99.90;;;;;;4952279;28;20058;-59
2022/01/20 03:11:26;;;;;;;14.80;2.70;;;3.90;99.90;;;;;;4944422;28;20291;-58
2022/01/20 03:13:52;;;;;;;16.30;2.72;;;3.80;99.90;;;;;;4955617;28;20122;-59
2022/01/20 03:16:18;;;;;;;14.32;2.80;;;3.80;99.90;;;;;;4969494;28;20082;-59
2022/01/20 03:18:44;;;;;;;15.13;2.92;;;3.80;99.90;;;;;;4962153;28;20126;-59
2022/01/20 03:21:10;;;;;;;15.68;2.83;;;3.70;99.90;;;;;;4952516;28;20679;-59
2022/01/20 03:23:36;;;;;;;18.98;3.28;;;3.70;99.90;;;;;;4929154;28;20660;-58
2022/01/20 03:26:03;;;;;;;24.90;3.53;;;3.70;99.90;;;;;;4978243;28;20417;-59
2022/01/20 03:28:29;;;;;;;19.55;3.70;;;3.70;99.90;;;;;;4943344;28;20054;-58
2022/01/20 03:30:55;;;;;;;22.60;3.58;;;3.70;99.90;;;;;;4962284;28;20047;-59
2022/01/20 03:33:21;;;;;;;19.13;3.08;;;3.70;99.90;;;;;;4950645;28;20066;-58
2022/01/20 03:35:50;;;;;;;13.57;2.40;;;3.70;99.90;;;;;;4929624;28;20070;-59
2022/01/20 03:38:39;;;;;;;21.70;3.53;;;3.70;99.90;;;;;;4941966;28;20100;-61
2022/01/20 03:41:05;;;;;;;16.40;3.50;;;3.80;99.90;;;;;;4947340;28;20051;-59
2022/01/20 03:43:31;;;;;;;20.38;3.60;;;3.70;99.90;;;;;;4943613;28;20055;-59
2022/01/20 03:46:00;;;;;;;21.25;3.85;;;3.70;99.90;;;;;;4963521;28;20050;-59
2022/01/20 03:48:28;;;;;;;20.60;3.80;;;3.70;99.90;;;;;;4929949;28;20047;-59
2022/01/20 03:51:02;;;;;;;19.00;3.65;;;3.70;99.90;;;;;;4946650;28;20150;-59
2022/01/20 03:53:38;;;;;;;25.25;4.22;;;3.60;99.90;;;;;;4961918;28;20121;-59
2022/01/20 03:56:09;;;;;;;19.98;4.90;;;3.60;99.90;;;;;;4979286;28;20065;-59
2022/01/20 03:58:54;;;;;;;21.85;4.63;;;3.60;99.90;;;;;;4960226;28;20058;-59
2022/01/20 04:01:22;;;;;;;19.45;3.75;;;3.60;99.90;;;;;;4945750;28;20105;-59
2022/01/20 04:04:11;;;;;;;25.27;4.88;;;3.70;99.90;;;;;;4957965;28;20078;-59
2022/01/20 04:06:49;;;;;;;30.70;4.93;;;3.70;99.90;;;;;;4960885;28;20047;-64
2022/01/20 04:09:15;;;;;;;21.35;3.95;;;3.70;99.90;;;;;;4993358;28;20054;-59
2022/01/20 04:11:42;;;;;;;20.98;3.63;;;3.70;99.90;;;;;;4937415;28;20410;-59
2022/01/20 04:14:12;;;;;;;27.35;4.47;;;3.60;99.90;;;;;;4930195;28;20057;-59
2022/01/20 04:19:26;;;;;;;21.02;3.42;;;3.60;99.90;;;;;;4966162;28;20047;-59
2022/01/20 04:21:52;;;;;;;22.02;4.25;;;3.60;99.90;;;;;;4967705;28;20051;-59
2022/01/20 04:24:18;;;;;;;22.48;3.38;;;3.60;99.90;;;;;;4972356;28;20097;-59
2022/01/20 04:26:46;;;;;;;21.10;4.00;;;3.60;99.90;;;;;;4979672;28;20054;-59
2022/01/20 04:29:14;;;;;;;12.25;3.60;;;3.60;99.90;;;;;;4963340;28;20039;-59
2022/01/20 04:31:41;;;;;;;15.02;3.40;;;3.60;99.90;;;;;;4978248;28;20059;-59
2022/01/20 04:34:08;;;;;;;16.10;3.75;;;3.60;99.90;;;;;;4950140;28;20077;-59
2022/01/20 04:36:38;;;;;;;16.60;3.40;;;3.60;99.90;;;;;;4974127;28;20129;-59
2022/01/20 04:39:10;;;;;;;16.75;2.88;;;3.60;99.90;;;;;;4947497;28;20062;-59
2022/01/20 04:41:36;;;;;;;16.27;3.20;;;3.60;99.90;;;;;;4943278;28;20047;-59
2022/01/20 04:44:10;;;;;;;16.33;3.15;;;3.60;99.90;;;;;;4934880;28;20057;-59
2022/01/20 04:46:44;;;;;;;14.98;3.53;;;3.60;99.90;;;;;;4964628;28;20667;-59
2022/01/20 04:57:26;;;;;;;20.35;3.90;;;3.40;99.90;;;;;;4955315;28;20094;-59
2022/01/20 04:59:54;;;;;;;14.20;3.00;;;3.40;99.90;;;;;;4963348;28;20051;-59
2022/01/20 05:02:23;;;;;;;22.27;3.30;;;3.20;99.90;;;;;;4977612;28;20101;-59
2022/01/20 05:05:01;;;;;;;15.93;3.00;;;3.20;99.90;;;;;;4931012;28;20098;-59
2022/01/20 05:07:39;;;;;;;15.45;3.30;;;3.10;99.90;;;;;;4986195;28;20558;-64
2022/01/20 05:10:10;;;;;;;12.90;3.30;;;3.10;99.90;;;;;;4998298;28;20055;-59
2022/01/20 05:13:24;;;;;;;16.40;3.85;;;3.20;99.90;;;;;;4942791;28;20502;-59
2022/01/20 05:15:25;;;;;;;20.45;4.28;;;3.20;99.90;;;;;;4968296;28;20043;-59
2022/01/20 05:17:53;;;;;;;17.17;3.22;;;3.20;99.90;;;;;;5000438;28;20053;-59
2022/01/20 05:20:19;;;;;;;17.17;3.92;;;3.30;99.90;;;;;;4973244;28;20047;-59
2022/01/20 05:22:45;;;;;;;24.33;4.68;;;3.30;99.90;;;;;;5014838;28;20046;-61
2022/01/20 05:25:15;;;;;;;22.17;3.95;;;3.30;99.90;;;;;;5043977;28;20513;-59
2022/01/20 05:27:41;;;;;;;21.05;3.97;;;3.30;99.90;;;;;;4975025;28;20061;-58
2022/01/20 05:30:09;;;;;;;19.80;4.00;;;3.30;99.90;;;;;;4957505;28;20066;-59
2022/01/20 05:32:36;;;;;;;20.23;3.75;;;3.20;99.90;;;;;;4974638;28;20109;-60
2022/01/20 05:35:02;;;;;;;12.88;3.53;;;3.20;99.90;;;;;;4945145;28;20129;-59
2022/01/20 05:37:28;;;;;;;20.90;3.75;;;3.10;99.90;;;;;;4950534;28;20350;-58
2022/01/20 05:39:54;;;;;;;13.25;3.42;;;3.20;99.90;;;;;;4974460;28;20056;-59
2022/01/20 05:42:24;;;;;;;15.95;3.30;;;3.20;99.90;;;;;;4965129;28;20397;-64
2022/01/20 05:44:58;;;;;;;14.48;3.38;;;3.20;99.90;;;;;;4952397;28;20054;-64
2022/01/20 05:47:29;;;;;;;19.88;4.55;;;3.10;99.90;;;;;;4979872;28;20055;-64
2022/01/20 05:50:24;;;;;;;19.98;2.88;;;3.10;99.90;;;;;;4978409;28;20502;-64
2022/01/20 05:52:52;;;;;;;15.38;2.92;;;3.10;99.90;;;;;;4968613;28;20493;-64
2022/01/20 05:55:20;;;;;;;14.38;2.83;;;3.10;99.90;;;;;;4953944;28;20502;-64
2022/01/20 05:57:47;;;;;;;11.15;2.20;;;3.10;99.90;;;;;;4978309;28;20122;-64
2022/01/20 06:00:20;;;;;;;11.70;2.20;;;2.90;99.90;;;;;;4962744;28;20512;-64
2022/01/20 06:05:37;;;;;;;10.73;2.40;;;2.90;99.90;;;;;;4969196;28;20512;-64
2022/01/20 06:08:05;;;;;;;10.55;2.50;;;2.90;99.90;;;;;;4959734;28;20452;-64
2022/01/20 06:10:31;;;;;;;10.40;2.58;;;2.80;99.90;;;;;;4934868;29;20430;-64
2022/01/20 06:13:05;;;;;;;13.25;1.98;;;2.70;99.90;;;;;;4976516;28;20070;-64
2022/01/20 06:15:32;;;;;;;10.65;2.35;;;2.70;99.90;;;;;;4963375;28;20089;-64
2022/01/20 06:18:00;;;;;;;7.60;1.88;;;2.60;99.90;;;;;;4968358;28;20051;-64
2022/01/20 06:20:27;;;;;;;18.30;2.72;;;2.50;99.90;;;;;;4989835;28;20043;-65
2022/01/20 06:22:54;;;;;;;13.15;2.58;;;2.40;99.90;;;;;;4962532;28;20051;-64
2022/01/20 06:25:20;;;;;;;12.73;2.33;;;2.40;99.90;;;;;;4980295;28;20493;-64
2022/01/20 06:27:48;;;;;;;9.77;2.25;;;2.40;99.90;;;;;;4956421;28;20232;-64
2022/01/20 06:30:14;;;;;;;14.60;2.88;;;2.40;99.90;;;;;;4962454;28;20050;-64
2022/01/20 06:32:41;;;;;;;13.93;2.92;;;2.50;99.90;;;;;;4972472;28;20049;-64
2022/01/20 06:35:12;;;;;;;13.93;2.67;;;2.50;99.90;;;;;;4987260;28;20048;-64
2022/01/20 06:37:38;;;;;;;14.15;2.80;;;2.50;99.90;;;;;;5034783;28;20417;-64
2022/01/20 06:40:06;;;;;;;15.15;2.95;;;2.50;99.90;;;;;;4971231;28;20258;-59
2022/01/20 06:42:32;;;;;;;9.63;2.45;;;2.50;99.90;;;;;;4990831;28;20050;-59
2022/01/20 06:44:59;;;;;;;12.02;2.80;;;2.40;99.90;;;;;;5029114;28;20044;-65
2022/01/20 06:47:25;;;;;;;14.07;2.78;;;2.40;99.90;;;;;;4968628;28;20121;-64
2022/01/20 06:49:51;;;;;;;15.80;2.67;;;2.40;99.90;;;;;;4981528;28;20054;-64
2022/01/20 06:52:17;;;;;;;13.63;3.40;;;2.30;99.90;;;;;;5004145;28;20562;-64
2022/01/20 06:54:44;;;;;;;14.57;2.92;;;2.30;99.90;;;;;;5014834;28;20040;-64
2022/01/20 06:57:10;;;;;;;14.07;3.10;;;2.40;99.90;;;;;;4994554;28;20049;-59
2022/01/20 06:59:37;;;;;;;16.42;3.72;;;2.30;99.90;;;;;;4993811;28;20044;-65
2022/01/20 07:02:03;;;;;;;13.00;3.28;;;2.30;99.90;;;;;;5019219;28;20129;-65
2022/01/20 07:04:34;;;;;;;23.37;4.20;;;2.20;99.90;;;;;;5000377;28;20046;-64
2022/01/20 07:07:01;;;;;;;15.07;2.80;;;2.30;99.90;;;;;;5006776;28;20090;-59
2022/01/20 07:09:43;;;;;;;17.83;3.93;;;2.30;99.90;;;;;;5001386;28;20188;-59
2022/01/20 07:12:22;;;;;;;17.52;3.78;;;2.20;99.90;;;;;;5013693;28;20058;-59
2022/01/20 07:14:48;;;;;;;16.95;3.83;;;2.20;99.90;;;;;;5000527;28;20036;-59
2022/01/20 07:17:14;;;;;;;19.45;3.95;;;2.20;99.90;;;;;;4978464;28;20059;-59
2022/01/20 07:19:45;;;;;;;22.17;4.53;;;2.30;99.90;;;;;;4985822;28;20083;-64
2022/01/20 07:22:15;;;;;;;16.45;3.58;;;2.40;99.90;;;;;;4943856;28;20059;-65
2022/01/20 07:24:42;;;;;;;19.02;3.45;;;2.40;99.90;;;;;;4983455;28;20453;-64
2022/01/20 07:27:32;;;;;;;15.05;3.65;;;2.40;99.90;;;;;;5029351;28;20074;-58
2022/01/20 07:29:58;;;;;;;13.32;3.00;;;2.60;99.90;;;;;;5025146;28;20058;-59
2022/01/20 07:32:24;;;;;;;13.32;3.17;;;2.60;99.90;;;;;;5003481;28;20413;-59
2022/01/20 07:34:53;;;;;;;16.65;4.78;;;2.60;99.90;;;;;;5011873;28;20052;-62
2022/01/20 07:37:19;;;;;;;16.15;3.05;;;2.60;99.90;;;;;;5013937;28;20049;-64
2022/01/20 07:39:45;;;;;;;12.77;2.83;;;2.60;99.90;;;;;;4959094;28;20302;-64
2022/01/20 07:42:12;;;;;;;19.40;3.65;;;2.50;99.90;;;;;;5025771;28;20048;-59
2022/01/20 07:45:04;;;;;;;16.27;3.88;;;2.50;99.90;;;;;;4998310;28;20073;-64
2022/01/20 07:47:41;;;;;;;16.92;3.28;;;2.60;99.90;;;;;;5001364;28;20056;-59
2022/01/20 07:50:09;;;;;;;18.75;3.20;;;2.60;99.90;;;;;;4992705;28;20490;-59
2022/01/20 07:52:35;;;;;;;15.50;3.38;;;2.60;99.90;;;;;;4998643;28;20051;-67
2022/01/20 07:55:03;;;;;;;16.33;3.30;;;2.70;99.90;;;;;;5024468;28;20160;-65
2022/01/20 07:57:30;;;;;;;15.18;3.45;;;2.70;99.90;;;;;;5029470;28;20043;-65
2022/01/20 07:59:56;;;;;;;15.98;3.67;;;2.70;99.90;;;;;;5011238;28;20403;-59
2022/01/20 08:02:27;;;;;;;18.30;3.08;;;2.60;99.90;;;;;;4939196;28;20051;-60
2022/01/20 08:04:53;;;;;;;11.95;3.92;;;2.60;99.90;;;;;;5039045;28;20098;-59
2022/01/20 08:07:20;;;;;;;17.60;3.33;;;2.50;99.90;;;;;;4985295;28;20044;-59
2022/01/20 08:09:50;;;;;;;15.35;3.28;;;2.50;99.90;;;;;;4999778;28;20105;-59
2022/01/20 08:12:19;;;;;;;19.08;4.28;;;2.50;99.90;;;;;;4987915;28;20044;-59
2022/01/20 08:15:12;;;;;;;17.95;3.50;;;2.40;99.90;;;;;;5014705;28;20112;-59
2022/01/20 08:18:06;;;;;;;14.57;3.50;;;2.50;99.90;;;;;;4979830;28;20062;-59
2022/01/20 08:20:34;;;;;;;14.82;3.10;;;2.60;99.90;;;;;;5008980;28;20479;-59
2022/01/20 08:23:04;;;;;;;19.23;3.95;;;2.80;99.90;;;;;;4977812;28;20510;-64
2022/01/20 08:25:32;;;;;;;18.38;3.42;;;2.80;99.90;;;;;;4996084;28;20444;-59
2022/01/20 08:27:59;;;;;;;13.25;3.47;;;2.90;99.90;;;;;;4996850;28;20413;-64
2022/01/20 08:30:26;;;;;;;18.45;3.78;;;2.90;99.90;;;;;;5021575;28;20454;-57
2022/01/20 08:32:56;;;;;;;11.68;3.13;;;2.90;99.90;;;;;;4989596;28;20086;-59
2022/01/20 08:35:32;;;;;;;21.15;3.88;;;3.00;99.90;;;;;;5016073;28;20522;-59
2022/01/20 08:38:06;;;;;;;15.52;3.70;;;3.00;99.90;;;;;;5016445;28;20047;-64
2022/01/20 08:40:33;;;;;;;14.75;3.13;;;3.10;99.90;;;;;;4990797;28;20105;-58
2022/01/20 08:43:01;;;;;;;13.40;3.00;;;3.10;99.90;;;;;;4970937;28;20047;-59
2022/01/20 08:45:32;;;;;;;20.20;3.70;;;3.10;99.90;;;;;;4977386;28;20292;-59
2022/01/20 08:47:59;;;;;;;18.05;3.90;;;3.30;99.90;;;;;;4956124;28;20051;-59
2022/01/20 08:50:43;;;;;;;20.25;3.72;;;3.40;99.90;;;;;;5025299;28;20054;-64
2022/01/20 08:53:11;;;;;;;15.40;2.80;;;3.50;99.90;;;;;;4971572;28;20066;-65
2022/01/20 08:55:38;;;;;;;15.13;3.92;;;3.50;99.90;;;;;;4988459;28;20047;-58
2022/01/20 08:58:13;;;;;;;18.13;3.63;;;3.50;99.90;;;;;;4973184;28;20043;-59
2022/01/20 09:00:39;;;;;;;25.42;4.25;;;3.40;99.90;;;;;;5023728;28;20385;-58
2022/01/20 09:03:09;;;;;;;16.75;3.55;;;3.20;99.90;;;;;;4984991;28;20048;-58
2022/01/20 09:05:36;;;;;;;15.40;2.90;;;3.10;99.90;;;;;;4978599;28;20685;-59
2022/01/20 09:08:09;;;;;;;18.75;3.60;;;3.00;99.90;;;;;;4948713;28;20051;-59
2022/01/20 09:10:42;;;;;;;16.40;3.17;;;3.10;99.90;;;;;;4984281;28;20043;-59
2022/01/20 09:15:57;;;;;;;15.05;3.42;;;3.00;99.90;;;;;;4961700;28;20059;-64
2022/01/20 09:18:44;;;;;;;19.52;3.78;;;2.90;99.90;;;;;;4973890;28;20510;-64
2022/01/20 09:21:12;;;;;;;12.90;2.58;;;2.70;99.90;;;;;;5007391;28;20052;-64
2022/01/20 09:23:39;;;;;;;16.08;2.53;;;2.70;99.90;;;;;;5019560;28;20051;-64
2022/01/20 09:26:06;;;;;;;10.02;2.42;;;2.70;99.90;;;;;;4985298;28;20047;-59
2022/01/20 09:28:37;;;;;;;10.73;2.58;;;2.70;99.90;;;;;;4971115;28;20465;-63
2022/01/20 09:31:03;;;;;;;11.50;2.80;;;2.80;99.90;;;;;;4972780;28;20580;-64
2022/01/20 09:33:30;;;;;;;14.07;2.92;;;2.80;99.90;;;;;;4962062;28;20055;-64
2022/01/20 09:35:58;;;;;;;16.23;2.72;;;3.00;99.90;;;;;;4956507;28;20062;-62
2022/01/20 09:38:27;;;;;;;11.52;3.33;;;3.50;99.90;;;;;;4995885;28;20116;-62
2022/01/20 09:40:54;;;;;;;14.73;3.38;;;4.10;99.90;;;;;;5032601;28;20487;-63
2022/01/20 09:43:21;;;;;;;12.68;2.75;;;4.60;99.90;;;;;;5015427;28;20040;-63
2022/01/20 09:45:51;;;;;;;16.23;3.08;;;5.20;99.90;;;;;;5002460;28;20044;-63
2022/01/20 09:48:19;;;;;;;15.43;3.35;;;5.90;99.90;;;;;;4997400;28;20311;-62
2022/01/20 09:51:14;;;;;;;14.68;3.50;;;6.00;99.90;;;;;;5008083;28;20048;-63
2022/01/20 09:53:47;;;;;;;12.10;2.50;;;5.50;99.90;;;;;;5022374;28;20051;-62
2022/01/20 09:56:23;;;;;;;15.40;2.92;;;5.00;99.90;;;;;;5011061;28;20532;-62
2022/01/20 09:58:49;;;;;;;8.18;2.28;;;4.20;99.90;;;;;;4987294;28;20050;-63
2022/01/20 10:01:42;;;;;;;6.95;2.08;;;3.80;99.90;;;;;;5089261;28;20048;-63
2022/01/20 10:04:29;;;;;;;9.13;1.65;;;3.60;99.90;;;;;;5013842;28;20054;-62
2022/01/20 10:07:11;;;;;;;17.15;3.00;;;3.40;99.90;;;;;;5011395;28;20454;-63
2022/01/20 10:09:47;;;;;;;14.02;2.47;;;3.30;99.90;;;;;;5019393;28;20419;-62
2022/01/20 10:12:38;;;;;;;11.75;1.70;;;3.20;99.90;;;;;;5002205;28;20044;-62
2022/01/20 10:15:24;;;;;;;11.20;1.90;;;3.70;99.90;;;;;;4985087;28;20058;-62
2022/01/20 10:18:09;;;;;;;10.15;2.08;;;4.40;99.90;;;;;;5024477;28;20050;-63
2022/01/20 10:20:49;;;;;;;12.00;2.40;;;5.00;99.90;;;;;;5035750;28;20050;-62
2022/01/20 10:23:48;;;;;;;11.40;2.17;;;5.30;99.90;;;;;;5000305;28;20055;-62
2022/01/20 10:26:39;;;;;;;9.13;2.08;;;5.50;99.90;;;;;;5006152;28;20466;-62
2022/01/20 10:29:09;;;;;;;9.18;2.55;;;5.20;99.90;;;;;;5064383;28;20052;-62
2022/01/20 10:31:38;;;;;;;19.60;3.30;;;4.80;99.90;;;;;;4981051;28;20102;-62
2022/01/20 10:34:17;;;;;;;8.90;2.70;;;4.30;99.90;;;;;;5041921;28;20615;-63
2022/01/20 10:36:52;;;;;;;11.77;2.25;;;3.70;99.90;;;;;;5036694;28;20054;-62
2022/01/20 10:39:29;;;;;;;10.30;2.30;;;3.40;99.90;;;;;;5015196;28;20036;-62
2022/01/20 10:42:07;;;;;;;16.13;4.07;;;3.30;99.90;;;;;;5049180;28;20048;-62
2022/01/20 10:44:50;;;;;;;9.68;2.10;;;3.10;99.90;;;;;;4988723;28;20547;-62
2022/01/20 10:47:21;;;;;;;11.77;2.33;;;3.10;99.90;;;;;;5023287;28;20039;-62
2022/01/20 10:49:48;;;;;;;8.95;2.42;;;3.10;99.90;;;;;;5013766;28;20488;-62
2022/01/20 10:52:18;;;;;;;11.57;2.60;;;3.20;99.90;;;;;;5028668;28;20536;-62
2022/01/20 10:54:53;;;;;;;10.95;2.58;;;3.50;99.90;;;;;;5023409;28;20151;-62
2022/01/20 10:57:33;;;;;;;15.80;2.78;;;3.50;99.90;;;;;;4989961;28;20047;-62
2022/01/20 11:00:07;;;;;;;13.73;2.45;;;3.70;99.90;;;;;;4973251;28;20104;-62
2022/01/20 11:02:53;;;;;;;13.50;3.00;;;3.70;99.90;;;;;;4984297;28;20035;-63
2022/01/20 11:05:19;;;;;;;;;;;3.80;99.90;;;;;;5005443;28;20125;-63
2022/01/20 11:07:47;;;;;;;8.15;2.10;;;3.80;99.90;;;;;;4993248;28;20393;-62
2022/01/20 11:10:15;;;;;;;17.85;7.78;;;4.10;99.90;;;;;;4998561;28;20545;-62
2022/01/20 11:12:47;;;;;;;13.60;2.50;;;4.60;99.90;;;;;;5009140;28;20053;-63
2022/01/20 11:15:31;;;;;;;16.88;3.47;;;5.10;99.90;;;;;;4991521;28;20484;-63
2022/01/20 11:17:59;;;;;;;14.05;2.92;;;5.60;99.90;;;;;;5001508;28;20067;-62
2022/01/20 11:20:32;;;;;;;12.50;2.30;;;6.60;99.90;;;;;;4994793;28;20516;-62
2022/01/20 11:23:02;;;;;;;9.87;2.67;;;7.50;99.90;;;;;;5033813;28;20379;-62
2022/01/20 11:25:35;;;;;;;12.27;2.80;;;7.50;99.90;;;;;;4994579;28;20302;-63
2022/01/20 11:28:25;;;;;;;15.18;2.67;;;7.30;99.90;;;;;;5000305;28;20116;-62
2022/01/20 11:31:08;;;;;;;9.75;3.17;;;7.60;99.90;;;;;;5021938;28;20549;-62
2022/01/20 11:34:02;;;;;;;13.05;3.10;;;7.80;99.90;;;;;;5008884;28;20056;-62
2022/01/20 11:36:31;;;;;;;15.35;3.40;;;7.40;99.90;;;;;;5019091;28;20521;-62
2022/01/20 11:39:04;;;;;;;15.73;3.00;;;7.00;99.90;;;;;;5009603;28;20153;-62
2022/01/20 11:41:36;;;;;;;13.90;2.97;;;7.00;99.90;;;;;;4987861;28;20498;-62
2022/01/20 11:44:18;;;;;;;13.43;3.15;;;7.10;99.90;;;;;;4977268;28;20046;-62
2022/01/20 11:46:47;;;;;;;9.23;3.22;;;7.40;99.90;;;;;;5023805;28;20044;-62
2022/01/20 11:49:15;;;;;;;14.45;3.03;;;7.90;99.90;;;;;;4990225;28;20092;-62
2022/01/20 11:51:45;;;;;;;23.33;7.00;;;8.20;99.90;;;;;;4976162;28;20128;-62
2022/01/20 11:54:12;;;;;;;10.57;3.20;;;9.00;99.90;;;;;;4983287;28;20062;-63
2022/01/20 11:56:42;;;;;;;16.20;2.83;;;9.30;99.90;;;;;;4999507;28;20041;-63
2022/01/20 11:59:12;;;;;;;17.23;3.80;;;9.50;99.90;;;;;;4952790;28;20122;-63
2022/01/20 12:01:44;;;;;;;12.70;3.30;;;9.60;99.90;;;;;;4964619;28;20051;-63
2022/01/20 12:04:11;;;;;;;14.02;3.00;;;9.40;99.90;;;;;;4972441;28;20137;-63
2022/01/20 12:06:46;;;;;;;13.85;4.93;;;8.90;99.90;;;;;;4985704;28;20121;-58
2022/01/20 12:09:35;;;;;;;24.65;7.82;;;8.00;99.90;;;;;;4988308;28;20048;-58
2022/01/20 12:12:24;;;;;;;13.55;3.95;;;7.20;99.90;;;;;;4993031;28;20163;-59
2022/01/20 12:14:50;;;;;;;13.13;3.72;;;6.50;99.90;;;;;;4982419;28;21070;-59
2022/01/20 12:17:17;;;;;;;14.38;5.03;;;6.30;99.90;;;;;;5006492;28;20043;-58
2022/01/20 12:19:52;;;;;;;14.88;3.72;;;6.20;99.90;;;;;;4983012;28;20462;-59
2022/01/20 12:22:19;;;;;;;12.05;3.00;;;6.80;99.90;;;;;;4982354;28;20401;-59
2022/01/20 12:24:53;;;;;;;16.40;4.78;;;7.60;99.90;;;;;;5017942;28;20058;-59
2022/01/20 12:27:22;;;;;;;15.70;4.78;;;8.50;99.90;;;;;;4984815;28;20038;-59
2022/01/20 12:29:48;;;;;;;13.60;3.40;;;9.10;99.90;;;;;;4986270;28;20518;-59
2022/01/20 12:32:17;;;;;;;11.25;3.72;;;9.20;99.90;;;;;;4989096;28;20037;-60
2022/01/20 12:34:55;;;;;;;8.50;3.08;;;9.40;99.90;;;;;;4971280;28;20055;-58
2022/01/20 12:37:21;;;;;;;11.30;3.08;;;10.00;99.90;;;;;;4989079;28;20321;-58
2022/01/20 12:39:47;;;;;;;11.55;2.92;;;9.30;99.90;;;;;;4995826;28;20060;-59
2022/01/20 12:42:13;;;;;;;14.07;2.75;;;8.90;99.90;;;;;;4983529;28;20050;-59
2022/01/20 12:44:46;;;;;;;15.82;3.00;;;9.30;99.90;;;;;;4993803;28;20133;-59
2022/01/20 12:47:13;;;;;;;14.10;2.92;;;9.60;99.90;;;;;;5010568;28;20052;-59
2022/01/20 12:49:40;;;;;;;15.02;3.72;;;9.90;99.90;;;;;;5010330;28;20093;-59
2022/01/20 12:52:07;;;;;;;11.63;3.53;;;10.40;99.90;;;;;;4997383;28;20043;-59
2022/01/20 12:54:35;;;;;;;12.98;3.05;;;10.90;99.90;;;;;;4991362;28;20045;-59
2022/01/20 12:57:07;;;;;;;13.10;3.08;;;11.00;99.90;;;;;;4987690;28;20074;-59
2022/01/20 12:59:37;;;;;;;13.25;4.53;;;11.30;95.30;;;;;;5010696;28;20360;-59
2022/01/20 13:02:06;;;;;;;12.20;2.88;;;11.40;98.30;;;;;;4974618;28;20561;-59
2022/01/20 13:04:33;;;;;;;13.10;3.90;;;11.70;99.70;;;;;;4962497;28;20051;-58
2022/01/20 13:07:02;;;;;;;14.20;3.30;;;12.20;94.20;;;;;;4972405;28;20054;-59
2022/01/20 13:09:43;;;;;;;16.65;3.00;;;12.20;99.60;;;;;;5003146;28;20054;-58
2022/01/20 13:12:11;;;;;;;17.63;4.57;;;11.90;82.60;;;;;;4964641;28;20045;-58
2022/01/20 13:14:49;;;;;;;9.50;2.85;;;11.70;99.90;;;;;;4947274;28;20673;-58
2022/01/20 13:17:24;;;;;;;11.73;3.83;;;11.30;76.30;;;;;;4962858;28;20055;-58
2022/01/20 13:19:54;;;;;;;14.95;6.40;;;10.40;88.70;;;;;;4955956;28;20121;-59
2022/01/20 13:22:39;;;;;;;20.40;7.72;;;8.90;91.50;;;;;;4974271;28;20043;-58
2022/01/20 13:25:11;;;;;;;13.05;2.65;;;7.70;99.90;;;;;;4989132;28;20054;-58
2022/01/20 13:27:53;;;;;;;14.55;3.20;;;6.20;99.90;;;;;;4951197;28;20047;-58
2022/01/20 13:30:47;;;;;;;11.75;3.17;;;5.80;99.90;;;;;;4992916;28;20143;-57
2022/01/20 13:33:20;;;;;;;11.57;2.60;;;5.70;99.90;;;;;;4958841;28;20057;-58
2022/01/20 13:35:57;;;;;;;12.27;3.47;;;6.30;99.90;;;;;;4947522;28;20079;-58
2022/01/20 13:38:34;;;;;;;13.30;3.20;;;7.10;99.90;;;;;;4953607;28;20069;-58
2022/01/20 13:41:07;;;;;;;9.77;2.80;;;8.00;99.90;;;;;;4957781;28;20516;-58
2022/01/20 13:46:34;;;;;;;11.00;2.92;;;9.60;99.90;;;;;;4956802;28;20069;-58
2022/01/20 13:49:26;;;;;;;15.57;3.45;;;9.70;99.90;;;;;;4985791;28;20146;-58
2022/01/20 13:52:14;;;;;;;17.00;3.08;;;9.30;99.90;;;;;;4972754;28;20498;-58
2022/01/20 13:54:46;;;;;;;13.25;4.05;;;9.10;99.90;;;;;;4964961;28;20094;-58
2022/01/20 13:57:12;;;;;;;14.40;2.75;;;9.20;95.30;;;;;;4974112;28;20233;-58
2022/01/20 13:59:56;;;;;;;13.55;3.03;;;9.10;91.70;;;;;;4963671;28;20058;-58
2022/01/20 14:02:23;;;;;;;9.82;2.50;;;8.20;95.10;;;;;;4975197;28;20043;-59
2022/01/20 14:04:52;;;;;;;11.20;2.90;;;8.00;99.90;;;;;;4965729;28;20486;-58
2022/01/20 14:07:23;;;;;;;12.55;2.90;;;7.70;99.90;;;;;;4955366;28;20372;-58
2022/01/20 14:09:50;;;;;;;14.20;4.37;;;7.00;99.90;;;;;;4966642;28;20155;-59
2022/01/20 14:12:16;;;;;;;19.98;3.63;;;6.40;99.90;;;;;;4954308;28;20109;-58
2022/01/20 14:14:42;;;;;;;17.45;3.55;;;6.00;99.90;;;;;;4974142;28;20522;-57